createdAt,value
2023-03-19T00:00:36.662Z,1006.24
2023-03-19T00:01:36.684Z,1006.18
2023-03-19T00:02:36.801Z,1006.15
2023-03-19T00:03:36.845Z,1006.24
2023-03-19T00:04:36.767Z,1006.22
2023-03-19T00:05:36.811Z,1006.21
2023-03-19T00:06:36.821Z,1006.26
2023-03-19T00:07:36.848Z,1006.26
2023-03-19T00:08:36.872Z,1006.27
2023-03-19T00:09:36.900Z,1006.23
2023-03-19T00:10:36.927Z,1006.29
2023-03-19T00:11:36.951Z,1006.25
2023-03-19T00:12:36.979Z,1006.28
2023-03-19T00:13:37.005Z,1006.28
2023-03-19T00:14:37.033Z,1006.28
2023-03-19T00:15:37.058Z,1006.32
2023-03-19T00:16:37.142Z,1006.27
2023-03-19T00:17:37.116Z,1006.28
2023-03-19T00:18:37.144Z,1006.25
2023-03-19T00:19:37.165Z,1006.32
2023-03-19T00:20:37.193Z,1006.29
2023-03-19T00:21:37.237Z,1006.28
2023-03-19T00:22:37.251Z,1006.25
2023-03-19T00:23:37.278Z,1006.27
2023-03-19T00:24:37.299Z,1006.23
2023-03-19T00:25:37.380Z,1006.21
2023-03-19T00:26:37.352Z,1006.21
2023-03-19T00:27:37.417Z,1006.21
2023-03-19T00:28:37.415Z,1006.22
2023-03-19T00:29:37.430Z,1006.24
2023-03-19T00:30:37.501Z,1006.21
2023-03-19T00:31:37.485Z,1006.24
2023-03-19T00:32:37.566Z,1006.23
2023-03-19T00:33:37.535Z,1006.26
2023-03-19T00:34:37.563Z,1006.18
2023-03-19T00:35:37.628Z,1006.21
2023-03-19T00:36:37.652Z,1006.20
2023-03-19T00:37:37.659Z,1006.19
2023-03-19T00:38:37.669Z,1006.18
2023-03-19T00:39:37.695Z,1006.18
2023-03-19T00:40:37.726Z,1006.16
2023-03-19T00:41:37.748Z,1006.22
2023-03-19T00:42:37.776Z,1006.17
2023-03-19T00:43:37.802Z,1006.19
2023-03-19T00:44:37.829Z,1006.20
2023-03-19T00:45:37.853Z,1006.15
2023-03-19T00:46:37.885Z,1006.16
2023-03-19T00:47:37.908Z,1006.14
2023-03-19T00:48:37.935Z,1006.13
2023-03-19T00:49:37.958Z,1006.17
2023-03-19T00:50:37.987Z,1006.11
2023-03-19T00:51:38.011Z,1006.17
2023-03-19T00:52:38.040Z,1006.21
2023-03-19T00:53:38.093Z,1006.19
2023-03-19T00:54:38.094Z,1006.21
2023-03-19T00:55:38.118Z,1006.20
2023-03-19T00:56:38.149Z,1006.20
2023-03-19T00:57:38.175Z,1006.26
2023-03-19T00:58:38.198Z,1006.27
2023-03-19T00:59:38.224Z,1006.21
2023-03-19T01:00:38.259Z,1006.21
2023-03-19T01:01:38.346Z,1006.29
2023-03-19T01:02:38.304Z,1006.24
2023-03-19T01:03:38.326Z,1006.23
2023-03-19T01:04:38.417Z,1006.22
2023-03-19T01:05:38.376Z,1006.20
2023-03-19T01:06:38.405Z,1006.21
2023-03-19T01:07:38.444Z,1006.18
2023-03-19T01:08:38.462Z,1006.18
2023-03-19T01:09:38.498Z,1006.18
2023-03-19T01:10:38.508Z,1006.17
2023-03-19T01:11:38.540Z,1006.18
2023-03-19T01:12:38.561Z,1006.17
2023-03-19T01:13:38.590Z,1006.16
2023-03-19T01:14:38.615Z,1006.13
2023-03-19T01:15:38.643Z,1006.15
2023-03-19T01:16:38.674Z,1006.16
2023-03-19T01:17:38.688Z,1006.15
2023-03-19T01:18:38.725Z,1006.18
2023-03-19T01:19:38.740Z,1006.21
2023-03-19T01:20:38.769Z,1006.20
2023-03-19T01:21:38.796Z,1006.21
2023-03-19T01:22:38.834Z,1006.25
2023-03-19T01:23:38.852Z,1006.24
2023-03-19T01:24:38.874Z,1006.24
2023-03-19T01:25:38.916Z,1006.27
2023-03-19T01:26:38.926Z,1006.26
2023-03-19T01:27:38.954Z,1006.27
2023-03-19T01:28:38.992Z,1006.28
2023-03-19T01:29:39.009Z,1006.25
2023-03-19T01:30:39.035Z,1006.25
2023-03-19T01:31:39.075Z,1006.23
2023-03-19T01:32:39.197Z,1006.19
2023-03-19T01:33:39.108Z,1006.23
2023-03-19T01:34:39.134Z,1006.18
2023-03-19T01:35:39.174Z,1006.17
2023-03-19T01:36:39.186Z,1006.19
2023-03-19T01:37:39.209Z,1006.21
2023-03-19T01:38:39.239Z,1006.21
2023-03-19T01:39:39.264Z,1006.23
2023-03-19T01:40:39.289Z,1006.24
2023-03-19T01:41:39.339Z,1006.26
2023-03-19T01:42:39.344Z,1006.24
2023-03-19T01:43:39.366Z,1006.24
2023-03-19T01:44:39.391Z,1006.24
2023-03-19T01:45:39.417Z,1006.23
2023-03-19T01:46:39.493Z,1006.23
2023-03-19T01:47:39.478Z,1006.23
2023-03-19T01:48:39.528Z,1006.23
2023-03-19T01:49:39.520Z,1006.21
2023-03-19T01:50:39.547Z,1006.18
2023-03-19T01:51:39.577Z,1006.18
2023-03-19T01:52:39.608Z,1006.15
2023-03-19T01:53:39.622Z,1006.21
2023-03-19T01:54:39.649Z,1006.16
2023-03-19T01:55:39.674Z,1006.15
2023-03-19T01:56:39.703Z,1006.15
2023-03-19T01:57:39.746Z,1006.16
2023-03-19T01:58:39.752Z,1006.22
2023-03-19T01:59:39.776Z,1006.15
2023-03-19T02:00:39.804Z,1006.19
2023-03-19T02:01:39.916Z,1006.20
2023-03-19T02:02:39.864Z,1006.19
2023-03-19T02:03:39.907Z,1006.13
2023-03-19T02:04:39.960Z,1006.19
2023-03-19T02:05:39.929Z,1006.16
2023-03-19T02:06:39.959Z,1006.12
2023-03-19T02:07:39.982Z,1006.15
2023-03-19T02:08:40.010Z,1006.11
2023-03-19T02:09:40.031Z,1006.13
2023-03-19T02:10:40.058Z,1006.11
2023-03-19T02:11:40.088Z,1006.17
2023-03-19T02:12:40.110Z,1006.20
2023-03-19T02:13:40.156Z,1006.20
2023-03-19T02:14:40.164Z,1006.19
2023-03-19T02:15:40.211Z,1006.17
2023-03-19T02:16:40.212Z,1006.22
2023-03-19T02:17:40.235Z,1006.16
2023-03-19T02:18:40.262Z,1006.21
2023-03-19T02:19:40.287Z,1006.19
2023-03-19T02:20:40.316Z,1006.20
2023-03-19T02:21:40.350Z,1006.16
2023-03-19T02:22:40.368Z,1006.17
2023-03-19T02:23:40.389Z,1006.17
2023-03-19T02:24:40.413Z,1006.16
2023-03-19T02:25:40.439Z,1006.18
2023-03-19T02:26:40.464Z,1006.23
2023-03-19T02:27:40.488Z,1006.20
2023-03-19T02:28:40.516Z,1006.22
2023-03-19T02:29:40.564Z,1006.17
2023-03-19T02:30:40.568Z,1006.21
2023-03-19T02:31:40.709Z,1006.11
2023-03-19T02:32:40.674Z,1006.12
2023-03-19T02:33:40.640Z,1006.18
2023-03-19T02:34:40.665Z,1006.20
2023-03-19T02:35:40.782Z,1006.20
2023-03-19T02:36:40.718Z,1006.21
2023-03-19T02:37:40.757Z,1006.21
2023-03-19T02:38:40.777Z,1006.16
2023-03-19T02:39:40.797Z,1006.17
2023-03-19T02:40:40.820Z,1006.15
2023-03-19T02:41:40.845Z,1006.15
2023-03-19T02:42:40.872Z,1006.15
2023-03-19T02:43:40.898Z,1006.15
2023-03-19T02:44:40.922Z,1006.15
2023-03-19T02:45:40.969Z,1006.10
2023-03-19T02:46:41.041Z,1006.10
2023-03-19T02:47:41.007Z,1006.13
2023-03-19T02:48:41.033Z,1006.19
2023-03-19T02:49:41.049Z,1006.18
2023-03-19T02:50:41.074Z,1006.18
2023-03-19T02:51:41.101Z,1006.17
2023-03-19T02:52:41.126Z,1006.16
2023-03-19T02:53:41.152Z,1006.20
2023-03-19T02:54:41.178Z,1006.23
2023-03-19T02:55:41.213Z,1006.24
2023-03-19T02:56:41.233Z,1006.21
2023-03-19T02:57:41.258Z,1006.23
2023-03-19T02:58:41.281Z,1006.27
2023-03-19T02:59:41.308Z,1006.25
2023-03-19T03:00:41.409Z,1006.23
2023-03-19T03:01:41.471Z,1006.29
2023-03-19T03:02:41.386Z,1006.24
2023-03-19T03:03:41.413Z,1006.22
2023-03-19T03:04:41.438Z,1006.24
2023-03-19T03:05:41.467Z,1006.19
2023-03-19T03:06:41.490Z,1006.23
2023-03-19T03:07:41.526Z,1006.21
2023-03-19T03:08:41.544Z,1006.23
2023-03-19T03:09:41.570Z,1006.24
2023-03-19T03:10:41.597Z,1006.26
2023-03-19T03:11:41.633Z,1006.23
2023-03-19T03:12:41.647Z,1006.20
2023-03-19T03:13:41.680Z,1006.22
2023-03-19T03:14:41.699Z,1006.21
2023-03-19T03:15:41.733Z,1006.21
2023-03-19T03:16:41.856Z,1006.21
2023-03-19T03:17:41.804Z,1006.21
2023-03-19T03:18:41.807Z,1006.20
2023-03-19T03:19:41.830Z,1006.20
2023-03-19T03:20:41.869Z,1006.18
2023-03-19T03:21:41.882Z,1006.24
2023-03-19T03:22:41.908Z,1006.18
2023-03-19T03:23:41.935Z,1006.18
2023-03-19T03:24:41.962Z,1006.19
2023-03-19T03:25:41.989Z,1006.26
2023-03-19T03:26:42.013Z,1006.22
2023-03-19T03:27:42.037Z,1006.27
2023-03-19T03:28:42.065Z,1006.24
2023-03-19T03:29:42.092Z,1006.31
2023-03-19T03:30:42.117Z,1006.24
2023-03-19T03:31:42.233Z,1006.29
2023-03-19T03:32:42.190Z,1006.28
2023-03-19T03:33:42.212Z,1006.29
2023-03-19T03:34:42.217Z,1006.32
2023-03-19T03:35:42.259Z,1006.33
2023-03-19T03:36:42.273Z,1006.33
2023-03-19T03:37:42.301Z,1006.37
2023-03-19T03:38:42.319Z,1006.34
2023-03-19T03:39:42.353Z,1006.36
2023-03-19T03:40:42.374Z,1006.34
2023-03-19T03:41:42.418Z,1006.35
2023-03-19T03:42:42.423Z,1006.33
2023-03-19T03:43:42.451Z,1006.32
2023-03-19T03:44:42.476Z,1006.31
2023-03-19T03:45:42.544Z,1006.35
2023-03-19T03:46:42.528Z,1006.36
2023-03-19T03:47:42.556Z,1006.40
2023-03-19T03:48:42.579Z,1006.38
2023-03-19T03:49:42.625Z,1006.35
2023-03-19T03:50:42.633Z,1006.44
2023-03-19T03:51:42.662Z,1006.45
2023-03-19T03:52:42.684Z,1006.42
2023-03-19T03:53:42.709Z,1006.46
2023-03-19T03:54:42.734Z,1006.46
2023-03-19T03:55:42.763Z,1006.45
2023-03-19T03:56:42.787Z,1006.45
2023-03-19T03:57:42.816Z,1006.51
2023-03-19T03:58:42.837Z,1006.49
2023-03-19T03:59:42.865Z,1006.51
2023-03-19T04:00:42.890Z,1006.52
2023-03-19T04:01:42.916Z,1006.48
2023-03-19T04:02:42.943Z,1006.51
2023-03-19T04:03:42.970Z,1006.56
2023-03-19T04:04:42.993Z,1006.54
2023-03-19T04:05:43.042Z,1006.55
2023-03-19T04:06:43.045Z,1006.54
2023-03-19T04:07:43.098Z,1006.56
2023-03-19T04:08:43.097Z,1006.51
2023-03-19T04:09:43.139Z,1006.50
2023-03-19T04:10:43.149Z,1006.45
2023-03-19T04:11:43.219Z,1006.48
2023-03-19T04:12:43.200Z,1006.48
2023-03-19T04:13:43.230Z,1006.46
2023-03-19T04:14:43.273Z,1006.48
2023-03-19T04:15:43.287Z,1006.49
2023-03-19T04:16:43.320Z,1006.56
2023-03-19T04:17:43.331Z,1006.52
2023-03-19T04:18:43.360Z,1006.53
2023-03-19T04:19:43.387Z,1006.53
2023-03-19T04:20:43.409Z,1006.57
2023-03-19T04:21:43.460Z,1006.56
2023-03-19T04:22:43.460Z,1006.53
2023-03-19T04:23:43.496Z,1006.55
2023-03-19T04:24:43.517Z,1006.53
2023-03-19T04:25:43.542Z,1006.55
2023-03-19T04:26:43.579Z,1006.54
2023-03-19T04:27:43.591Z,1006.55
2023-03-19T04:28:43.616Z,1006.61
2023-03-19T04:29:43.646Z,1006.60
2023-03-19T04:30:43.768Z,1006.63
2023-03-19T04:31:43.695Z,1006.66
2023-03-19T04:32:43.755Z,1006.64
2023-03-19T04:33:43.748Z,1006.60
2023-03-19T04:34:43.773Z,1006.58
2023-03-19T04:35:43.820Z,1006.55
2023-03-19T04:36:43.824Z,1006.56
2023-03-19T04:37:43.869Z,1006.60
2023-03-19T04:38:43.875Z,1006.53
2023-03-19T04:39:43.902Z,1006.57
2023-03-19T04:40:43.926Z,1006.64
2023-03-19T04:41:43.960Z,1006.60
2023-03-19T04:42:43.978Z,1006.62
2023-03-19T04:43:44.008Z,1006.69
2023-03-19T04:44:44.046Z,1006.66
2023-03-19T04:45:44.095Z,1006.68
2023-03-19T04:46:44.080Z,1006.69
2023-03-19T04:47:44.109Z,1006.70
2023-03-19T04:48:44.133Z,1006.71
2023-03-19T04:49:44.158Z,1006.67
2023-03-19T04:50:44.183Z,1006.67
2023-03-19T04:51:44.208Z,1006.73
2023-03-19T04:52:44.238Z,1006.72
2023-03-19T04:53:44.281Z,1006.71
2023-03-19T04:54:44.284Z,1006.74
2023-03-19T04:55:44.313Z,1006.68
2023-03-19T04:56:44.340Z,1006.69
2023-03-19T04:57:44.370Z,1006.69
2023-03-19T04:58:44.388Z,1006.69
2023-03-19T04:59:44.416Z,1006.71
2023-03-19T05:00:44.444Z,1006.72
2023-03-19T05:01:44.540Z,1006.70
2023-03-19T05:02:44.491Z,1006.72
2023-03-19T05:03:44.538Z,1006.73
2023-03-19T05:04:44.546Z,1006.73
2023-03-19T05:05:44.580Z,1006.77
2023-03-19T05:06:44.598Z,1006.77
2023-03-19T05:07:44.624Z,1006.78
2023-03-19T05:08:44.649Z,1006.82
2023-03-19T05:09:44.701Z,1006.83
2023-03-19T05:10:44.699Z,1006.83
2023-03-19T05:11:44.729Z,1006.86
2023-03-19T05:12:44.750Z,1006.86
2023-03-19T05:13:44.778Z,1006.82
2023-03-19T05:14:44.801Z,1006.85
2023-03-19T05:15:44.880Z,1006.88
2023-03-19T05:16:44.853Z,1006.84
2023-03-19T05:17:44.882Z,1006.94
2023-03-19T05:18:44.910Z,1006.91
2023-03-19T05:19:44.942Z,1006.86
2023-03-19T05:20:44.955Z,1006.89
2023-03-19T05:21:44.985Z,1006.88
2023-03-19T05:22:45.014Z,1006.83
2023-03-19T05:23:45.035Z,1006.89
2023-03-19T05:24:45.058Z,1006.89
2023-03-19T05:25:45.105Z,1006.94
2023-03-19T05:26:45.117Z,1006.95
2023-03-19T05:27:45.161Z,1006.97
2023-03-19T05:28:45.185Z,1006.97
2023-03-19T05:29:45.196Z,1006.97
2023-03-19T05:30:45.374Z,1006.97
2023-03-19T05:31:45.250Z,1006.95
2023-03-19T05:32:45.288Z,1006.97
2023-03-19T05:33:45.293Z,1007.04
2023-03-19T05:34:45.317Z,1007.00
2023-03-19T05:35:45.383Z,1007.08
2023-03-19T05:36:45.372Z,1007.10
2023-03-19T05:37:45.398Z,1007.07
2023-03-19T05:38:45.424Z,1007.05
2023-03-19T05:39:45.451Z,1007.02
2023-03-19T05:40:45.478Z,1007.03
2023-03-19T05:41:45.520Z,1007.03
2023-03-19T05:42:45.537Z,1006.99
2023-03-19T05:43:45.554Z,1006.92
2023-03-19T05:44:45.585Z,1006.99
2023-03-19T05:45:45.609Z,1007.00
2023-03-19T05:46:45.705Z,1007.01
2023-03-19T05:47:45.657Z,1007.01
2023-03-19T05:48:45.697Z,1007.02
2023-03-19T05:49:45.709Z,1007.07
2023-03-19T05:50:45.737Z,1007.08
2023-03-19T05:51:45.761Z,1007.08
2023-03-19T05:52:45.808Z,1007.10
2023-03-19T05:53:45.813Z,1007.14
2023-03-19T05:54:45.838Z,1007.14
2023-03-19T05:55:45.875Z,1007.15
2023-03-19T05:56:45.892Z,1007.17
2023-03-19T05:57:45.938Z,1007.22
2023-03-19T05:58:45.957Z,1007.21
2023-03-19T05:59:45.978Z,1007.24
2023-03-19T06:00:45.998Z,1007.27
2023-03-19T06:01:46.073Z,1007.26
2023-03-19T06:02:46.080Z,1007.25
2023-03-19T06:03:46.148Z,1007.25
2023-03-19T06:04:46.098Z,1007.23
2023-03-19T06:05:46.224Z,1007.27
2023-03-19T06:06:46.153Z,1007.25
2023-03-19T06:07:46.175Z,1007.25
2023-03-19T06:08:46.200Z,1007.24
2023-03-19T06:09:46.228Z,1007.32
2023-03-19T06:10:46.254Z,1007.27
2023-03-19T06:11:46.301Z,1007.28
2023-03-19T06:12:46.306Z,1007.26
2023-03-19T06:13:46.364Z,1007.28
2023-03-19T06:14:46.359Z,1007.29
2023-03-19T06:15:46.422Z,1007.26
2023-03-19T06:16:46.413Z,1007.31
2023-03-19T06:17:46.444Z,1007.31
2023-03-19T06:18:46.461Z,1007.34
2023-03-19T06:19:46.490Z,1007.28
2023-03-19T06:20:46.531Z,1007.29
2023-03-19T06:21:46.542Z,1007.29
2023-03-19T06:22:46.568Z,1007.27
2023-03-19T06:23:46.595Z,1007.25
2023-03-19T06:24:46.619Z,1007.35
2023-03-19T06:25:46.663Z,1007.34
2023-03-19T06:26:46.679Z,1007.35
2023-03-19T06:27:46.708Z,1007.37
2023-03-19T06:28:46.728Z,1007.40
2023-03-19T06:29:46.778Z,1007.34
2023-03-19T06:30:46.789Z,1007.39
2023-03-19T06:31:46.850Z,1007.36
2023-03-19T06:32:46.856Z,1007.39
2023-03-19T06:33:46.868Z,1007.35
2023-03-19T06:34:46.889Z,1007.35
2023-03-19T06:35:46.927Z,1007.37
2023-03-19T06:36:46.948Z,1007.34
2023-03-19T06:37:46.968Z,1007.36
2023-03-19T06:38:46.993Z,1007.34
2023-03-19T06:39:47.026Z,1007.32
2023-03-19T06:40:47.047Z,1007.35
2023-03-19T06:41:47.086Z,1007.39
2023-03-19T06:42:47.115Z,1007.37
2023-03-19T06:43:47.129Z,1007.39
2023-03-19T06:44:47.157Z,1007.45
2023-03-19T06:45:47.279Z,1007.44
2023-03-19T06:46:47.227Z,1007.44
2023-03-19T06:47:47.235Z,1007.44
2023-03-19T06:48:47.267Z,1007.46
2023-03-19T06:49:47.305Z,1007.45
2023-03-19T06:50:47.322Z,1007.48
2023-03-19T06:51:47.342Z,1007.52
2023-03-19T06:52:47.373Z,1007.51
2023-03-19T06:53:47.403Z,1007.54
2023-03-19T06:54:47.424Z,1007.56
2023-03-19T06:55:47.449Z,1007.56
2023-03-19T06:56:47.474Z,1007.62
2023-03-19T06:57:47.501Z,1007.55
2023-03-19T06:58:47.529Z,1007.59
2023-03-19T06:59:47.553Z,1007.61
2023-03-19T07:00:47.664Z,1007.58
2023-03-19T07:01:47.625Z,1007.62
2023-03-19T07:02:47.643Z,1007.57
2023-03-19T07:03:47.686Z,1007.61
2023-03-19T07:04:47.693Z,1007.57
2023-03-19T07:05:47.721Z,1007.58
2023-03-19T07:06:47.740Z,1007.61
2023-03-19T07:07:47.779Z,1007.65
2023-03-19T07:08:47.793Z,1007.65
2023-03-19T07:09:47.826Z,1007.67
2023-03-19T07:10:47.845Z,1007.67
2023-03-19T07:11:47.874Z,1007.65
2023-03-19T07:12:47.906Z,1007.71
2023-03-19T07:13:47.929Z,1007.69
2023-03-19T07:14:47.953Z,1007.69
2023-03-19T07:15:47.984Z,1007.73
2023-03-19T07:16:48.080Z,1007.76
2023-03-19T07:17:48.050Z,1007.78
2023-03-19T07:18:48.059Z,1007.79
2023-03-19T07:19:48.093Z,1007.80
2023-03-19T07:20:48.113Z,1007.78
2023-03-19T07:21:48.136Z,1007.80
2023-03-19T07:22:48.166Z,1007.82
2023-03-19T07:23:48.199Z,1007.83
2023-03-19T07:24:48.220Z,1007.84
2023-03-19T07:25:48.249Z,1007.83
2023-03-19T07:26:48.271Z,1007.85
2023-03-19T07:27:48.303Z,1007.82
2023-03-19T07:28:48.326Z,1007.86
2023-03-19T07:29:48.355Z,1007.87
2023-03-19T07:30:48.379Z,1007.90
2023-03-19T07:31:48.474Z,1007.88
2023-03-19T07:32:48.484Z,1007.86
2023-03-19T07:33:48.478Z,1007.92
2023-03-19T07:34:48.485Z,1007.90
2023-03-19T07:35:48.684Z,1007.92
2023-03-19T07:36:48.538Z,1007.90
2023-03-19T07:37:48.566Z,1007.93
2023-03-19T07:38:48.599Z,1007.97
2023-03-19T07:39:48.623Z,1008.00
2023-03-19T07:41:01.413Z,1007.94
2023-03-19T07:41:48.715Z,1008.02
2023-03-19T07:42:48.700Z,1008.02
2023-03-19T07:43:48.721Z,1008.02
2023-03-19T07:44:48.750Z,1008.01
2023-03-19T07:45:48.784Z,1008.04
2023-03-19T07:46:48.803Z,1007.97
2023-03-19T07:47:50.343Z,1008.03
2023-03-19T07:48:48.878Z,1008.00
2023-03-19T07:49:48.902Z,1008.02
2023-03-19T07:50:48.918Z,1007.96
2023-03-19T07:51:48.936Z,1007.97
2023-03-19T07:52:49.098Z,1007.93
2023-03-19T07:53:49.030Z,1007.95
2023-03-19T07:54:49.020Z,1007.97
2023-03-19T07:55:49.180Z,1007.99
2023-03-19T07:56:49.071Z,1007.95
2023-03-19T07:57:49.099Z,1007.98
2023-03-19T07:58:49.739Z,1007.96
2023-03-19T07:59:49.220Z,1007.94
2023-03-19T08:00:49.176Z,1007.96
2023-03-19T08:01:49.206Z,1007.99
2023-03-19T08:02:49.374Z,1008.02
2023-03-19T08:03:49.264Z,1008.03
2023-03-19T08:04:49.301Z,1008.01
2023-03-19T08:05:49.334Z,1008.04
2023-03-19T08:06:49.354Z,1008.03
2023-03-19T08:07:49.367Z,1008.04
2023-03-19T08:08:50.207Z,1008.05
2023-03-19T08:09:49.422Z,1007.98
2023-03-19T08:10:49.447Z,1007.94
2023-03-19T08:11:49.478Z,1007.97
2023-03-19T08:12:49.502Z,1007.99
2023-03-19T08:13:49.537Z,1007.96
2023-03-19T08:14:49.558Z,1008.01
2023-03-19T08:15:49.593Z,1008.01
2023-03-19T08:16:49.670Z,1008.06
2023-03-19T08:17:49.657Z,1008.09
2023-03-19T08:18:51.334Z,1008.09
2023-03-19T08:19:49.692Z,1008.05
2023-03-19T08:20:49.723Z,1008.02
2023-03-19T08:21:49.765Z,1008.05
2023-03-19T08:22:49.776Z,1008.04
2023-03-19T08:23:49.801Z,1008.05
2023-03-19T08:24:49.845Z,1008.08
2023-03-19T08:25:49.857Z,1008.09
2023-03-19T08:26:49.883Z,1008.15
2023-03-19T08:27:49.911Z,1008.14
2023-03-19T08:28:49.944Z,1008.12
2023-03-19T08:29:49.967Z,1008.13
2023-03-19T08:30:50.056Z,1008.10
2023-03-19T08:31:50.024Z,1008.11
2023-03-19T08:32:50.064Z,1008.05
2023-03-19T08:33:50.095Z,1008.10
2023-03-19T08:34:50.113Z,1008.10
2023-03-19T08:35:50.227Z,1008.09
2023-03-19T08:36:50.166Z,1008.11
2023-03-19T08:37:50.212Z,1008.16
2023-03-19T08:38:50.220Z,1008.12
2023-03-19T08:39:50.350Z,1008.14
2023-03-19T08:40:50.312Z,1008.13
2023-03-19T08:41:50.306Z,1008.16
2023-03-19T08:42:50.340Z,1008.19
2023-03-19T08:43:50.367Z,1008.20
2023-03-19T08:44:50.396Z,1008.21
2023-03-19T08:45:50.436Z,1008.22
2023-03-19T08:46:50.449Z,1008.21
2023-03-19T08:47:50.477Z,1008.20
2023-03-19T08:48:50.505Z,1008.26
2023-03-19T08:49:50.533Z,1008.24
2023-03-19T08:50:50.563Z,1008.27
2023-03-19T08:51:50.599Z,1008.22
2023-03-19T08:52:50.624Z,1008.26
2023-03-19T08:53:50.679Z,1008.23
2023-03-19T08:54:50.679Z,1008.24
2023-03-19T08:55:50.706Z,1008.23
2023-03-19T08:56:50.739Z,1008.22
2023-03-19T08:57:50.774Z,1008.20
2023-03-19T08:58:50.790Z,1008.21
2023-03-19T08:59:50.820Z,1008.22
2023-03-19T09:00:51.061Z,1008.23
2023-03-19T09:01:50.955Z,1008.23
2023-03-19T09:02:50.907Z,1008.23
2023-03-19T09:03:50.952Z,1008.27
2023-03-19T09:04:51.060Z,1008.29
2023-03-19T09:05:51.065Z,1008.23
2023-03-19T09:06:51.102Z,1008.26
2023-03-19T09:07:51.123Z,1008.30
2023-03-19T09:08:51.096Z,1008.21
2023-03-19T09:09:51.127Z,1008.29
2023-03-19T09:10:51.594Z,1008.27
2023-03-19T09:11:51.209Z,1008.29
2023-03-19T09:12:51.199Z,1008.25
2023-03-19T09:13:51.223Z,1008.26
2023-03-19T09:14:51.251Z,1008.29
2023-03-19T09:15:51.355Z,1008.27
2023-03-19T09:16:51.319Z,1008.28
2023-03-19T09:17:51.339Z,1008.29
2023-03-19T09:18:51.367Z,1008.23
2023-03-19T09:19:51.395Z,1008.27
2023-03-19T09:20:51.424Z,1008.35
2023-03-19T09:21:51.455Z,1008.35
2023-03-19T09:22:51.483Z,1008.33
2023-03-19T09:23:51.524Z,1008.39
2023-03-19T09:24:51.542Z,1008.41
2023-03-19T09:25:51.719Z,1008.43
2023-03-19T09:26:51.608Z,1008.41
2023-03-19T09:27:51.654Z,1008.46
2023-03-19T09:28:51.673Z,1008.44
2023-03-19T09:29:51.717Z,1008.42
2023-03-19T09:30:51.866Z,1008.47
2023-03-19T09:31:51.737Z,1008.37
2023-03-19T09:32:51.820Z,1008.36
2023-03-19T09:33:51.807Z,1008.36
2023-03-19T09:34:51.840Z,1008.36
2023-03-19T09:35:51.977Z,1008.35
2023-03-19T09:36:51.903Z,1008.40
2023-03-19T09:37:52.233Z,1008.40
2023-03-19T09:38:51.953Z,1008.43
2023-03-19T09:39:51.973Z,1008.52
2023-03-19T09:40:52.011Z,1008.48
2023-03-19T09:41:52.058Z,1008.51
2023-03-19T09:42:52.061Z,1008.54
2023-03-19T09:43:52.093Z,1008.48
2023-03-19T09:44:52.122Z,1008.47
2023-03-19T09:45:52.148Z,1008.46
2023-03-19T09:46:52.253Z,1008.44
2023-03-19T09:47:52.210Z,1008.45
2023-03-19T09:48:52.247Z,1008.45
2023-03-19T09:49:52.264Z,1008.47
2023-03-19T09:50:52.297Z,1008.49
2023-03-19T09:51:52.525Z,1008.51
2023-03-19T09:52:52.358Z,1008.55
2023-03-19T09:53:52.387Z,1008.50
2023-03-19T09:54:52.427Z,1008.55
2023-03-19T09:55:52.475Z,1008.50
2023-03-19T09:56:52.483Z,1008.48
2023-03-19T09:57:52.519Z,1008.51
2023-03-19T09:58:52.549Z,1008.52
2023-03-19T09:59:52.571Z,1008.50
2023-03-19T10:00:52.601Z,1008.49
2023-03-19T10:01:52.641Z,1008.47
2023-03-19T10:02:52.657Z,1008.48
2023-03-19T10:03:52.731Z,1008.49
2023-03-19T10:04:52.711Z,1008.47
2023-03-19T10:05:52.755Z,1008.47
2023-03-19T10:06:52.770Z,1008.52
2023-03-19T10:07:52.998Z,1008.46
2023-03-19T10:08:52.828Z,1008.54
2023-03-19T10:09:53.007Z,1008.58
2023-03-19T10:10:52.886Z,1008.55
2023-03-19T10:11:52.939Z,1008.56
2023-03-19T10:12:53.057Z,1008.58
2023-03-19T10:13:52.993Z,1008.57
2023-03-19T10:14:53.002Z,1008.59
2023-03-19T10:15:53.121Z,1008.56
2023-03-19T10:16:53.066Z,1008.56
2023-03-19T10:17:53.092Z,1008.53
2023-03-19T10:18:53.415Z,1008.53
2023-03-19T10:19:53.151Z,1008.55
2023-03-19T10:20:53.178Z,1008.47
2023-03-19T10:21:53.205Z,1008.54
2023-03-19T10:22:53.236Z,1008.53
2023-03-19T10:23:53.266Z,1008.58
2023-03-19T10:24:53.297Z,1008.55
2023-03-19T10:25:53.323Z,1008.46
2023-03-19T10:26:53.354Z,1008.52
2023-03-19T10:27:53.381Z,1008.51
2023-03-19T10:28:53.413Z,1008.56
2023-03-19T10:29:53.458Z,1008.57
2023-03-19T10:30:53.475Z,1008.60
2023-03-19T10:31:53.551Z,1008.60
2023-03-19T10:32:53.613Z,1008.61
2023-03-19T10:33:53.562Z,1008.59
2023-03-19T10:34:53.601Z,1008.62
2023-03-19T10:35:53.661Z,1008.57
2023-03-19T10:36:53.647Z,1008.59
2023-03-19T10:37:53.675Z,1008.62
2023-03-19T10:38:53.705Z,1008.59
2023-03-19T10:39:53.733Z,1008.58
2023-03-19T10:40:53.762Z,1008.59
2023-03-19T10:41:53.787Z,1008.58
2023-03-19T10:42:53.819Z,1008.56
2023-03-19T10:43:53.848Z,1008.59
2023-03-19T10:44:53.889Z,1008.57
2023-03-19T10:45:53.941Z,1008.60
2023-03-19T10:46:53.935Z,1008.55
2023-03-19T10:47:53.963Z,1008.60
2023-03-19T10:48:53.993Z,1008.61
2023-03-19T10:49:54.018Z,1008.62
2023-03-19T10:50:54.052Z,1008.62
2023-03-19T10:51:54.074Z,1008.65
2023-03-19T10:52:54.110Z,1008.65
2023-03-19T10:53:54.148Z,1008.67
2023-03-19T10:54:55.282Z,1008.66
2023-03-19T10:55:54.191Z,1008.66
2023-03-19T10:56:54.224Z,1008.71
2023-03-19T10:57:54.250Z,1008.71
2023-03-19T10:58:54.280Z,1008.62
2023-03-19T10:59:54.307Z,1008.67
2023-03-19T11:00:54.362Z,1008.68
2023-03-19T11:01:54.383Z,1008.69
2023-03-19T11:02:54.408Z,1008.69
2023-03-19T11:03:54.471Z,1008.69
2023-03-19T11:04:54.459Z,1008.71
2023-03-19T11:05:54.479Z,1008.76
2023-03-19T11:06:54.529Z,1008.73
2023-03-19T11:07:54.536Z,1008.74
2023-03-19T11:08:54.564Z,1008.73
2023-03-19T11:09:54.598Z,1008.81
2023-03-19T11:10:54.619Z,1008.81
2023-03-19T11:11:54.671Z,1008.68
2023-03-19T11:12:54.678Z,1008.76
2023-03-19T11:13:54.707Z,1008.70
2023-03-19T11:14:54.734Z,1008.68
2023-03-19T11:15:54.781Z,1008.66
2023-03-19T11:16:54.870Z,1008.64
2023-03-19T11:17:54.845Z,1008.63
2023-03-19T11:18:54.863Z,1008.68
2023-03-19T11:19:54.882Z,1008.65
2023-03-19T11:20:54.916Z,1008.65
2023-03-19T11:21:54.943Z,1008.74
2023-03-19T11:22:55.122Z,1008.66
2023-03-19T11:23:55.000Z,1008.69
2023-03-19T11:24:55.028Z,1008.63
2023-03-19T11:25:55.058Z,1008.69
2023-03-19T11:26:55.089Z,1008.66
2023-03-19T11:27:55.119Z,1008.67
2023-03-19T11:28:55.146Z,1008.66
2023-03-19T11:29:55.175Z,1008.67
2023-03-19T11:30:55.204Z,1008.63
2023-03-19T11:31:55.277Z,1008.65
2023-03-19T11:32:55.391Z,1008.64
2023-03-19T11:33:55.311Z,1008.66
2023-03-19T11:34:55.321Z,1008.70
2023-03-19T11:35:55.405Z,1008.65
2023-03-19T11:36:55.383Z,1008.61
2023-03-19T11:37:55.421Z,1008.66
2023-03-19T11:38:55.442Z,1008.60
2023-03-19T11:39:55.472Z,1008.68
2023-03-19T11:40:55.505Z,1008.66
2023-03-19T11:41:55.534Z,1008.66
2023-03-19T11:42:55.559Z,1008.66
2023-03-19T11:43:55.590Z,1008.71
2023-03-19T11:44:55.619Z,1008.66
2023-03-19T11:45:55.683Z,1008.67
2023-03-19T11:46:55.696Z,1008.69
2023-03-19T11:47:55.709Z,1008.65
2023-03-19T11:48:55.762Z,1008.65
2023-03-19T11:49:55.788Z,1008.65
2023-03-19T11:50:55.797Z,1008.67
2023-03-19T11:51:55.829Z,1008.70
2023-03-19T11:52:55.854Z,1008.71
2023-03-19T11:53:55.886Z,1008.68
2023-03-19T11:54:55.914Z,1008.69
2023-03-19T11:55:55.947Z,1008.63
2023-03-19T11:56:55.972Z,1008.66
2023-03-19T11:57:56.004Z,1008.73
2023-03-19T11:58:56.035Z,1008.72
2023-03-19T11:59:56.063Z,1008.72
2023-03-19T12:00:56.093Z,1008.76
2023-03-19T12:01:56.121Z,1008.64
2023-03-19T12:02:56.151Z,1008.62
2023-03-19T12:03:56.230Z,1008.71
2023-03-19T12:04:56.213Z,1008.74
2023-03-19T12:05:56.265Z,1008.67